Time;durP1;ratioP1;P1;durP2;ratioP2;P2;SDS_P1;SDS_P2;PMS_P1;PMS_P2;Temp;Humidity;BMP_temperature;BMP_pressure;BME280_temperature;BME280_humidity;BME280_pressure;Samples;Min_cycle;Max_cycle;Signal;HPM_P1;HPM_P2
2022/06/12 00:01:33;;;;;;;29.25;16.40;;;;;;;;;;6207308;28;20671;-59
2022/06/12 00:04:34;;;;;;;27.00;16.50;;;;;;;;;;6206963;28;20598;-60
2022/06/12 00:07:35;;;;;;;30.23;16.27;;;;;;;;;;6212225;28;20073;-60
2022/06/12 00:10:37;;;;;;;24.45;15.73;;;;;;;;;;6208251;28;20038;-59
2022/06/12 00:13:45;;;;;;;21.85;14.50;;;;;;;;;;6209657;28;20088;-60
2022/06/12 00:16:46;;;;;;;25.17;15.20;;;;;;;;;;6205598;28;20064;-59
2022/06/12 00:19:49;;;;;;;24.85;15.15;;;;;;;;;;6199206;28;20074;-60
2022/06/12 00:22:52;;;;;;;25.13;15.45;;;;;;;;;;6202529;28;20401;-60
2022/06/12 00:25:53;;;;;;;23.77;15.43;;;;;;;;;;6206993;28;20042;-58
2022/06/12 00:29:00;;;;;;;25.60;15.55;;;;;;;;;;6208929;28;20144;-60
2022/06/12 00:32:08;;;;;;;24.60;14.45;;;;;;;;;;6201566;28;20049;-59
2022/06/12 00:35:09;;;;;;;24.58;14.32;;;;;;;;;;6211430;28;20078;-60
2022/06/12 00:38:09;;;;;;;21.20;13.52;;;;;;;;;;6211098;28;20054;-60
2022/06/12 00:41:10;;;;;;;24.63;15.57;;;;;;;;;;6210012;28;20935;-59
2022/06/12 00:44:15;;;;;;;23.58;15.00;;;;;;;;;;6201111;28;20053;-59
2022/06/12 00:47:16;;;;;;;29.30;15.85;;;;;;;;;;6209683;28;20050;-59
2022/06/12 00:50:17;;;;;;;24.83;14.77;;;;;;;;;;6210549;28;20513;-60
2022/06/12 00:53:25;;;;;;;23.58;14.20;;;;;;;;;;6209660;28;20095;-60
2022/06/12 00:56:31;;;;;;;23.60;14.93;;;;;;;;;;6211181;28;20096;-59
2022/06/12 00:59:33;;;;;;;22.83;15.30;;;;;;;;;;6207670;28;20054;-59
2022/06/12 01:02:35;;;;;;;23.08;14.65;;;;;;;;;;6202053;28;20393;-59
2022/06/12 01:08:55;;;;;;;23.30;14.77;;;;;;;;;;6195866;28;20058;-59
2022/06/12 01:11:57;;;;;;;22.70;14.98;;;;;;;;;;6207123;28;20133;-59
2022/06/12 01:15:21;;;;;;;25.10;14.77;;;;;;;;;;6197748;28;20104;-60
2022/06/12 01:18:28;;;;;;;24.67;13.88;;;;;;;;;;6206487;28;20467;-59
2022/06/12 01:21:34;;;;;;;26.33;15.30;;;;;;;;;;6206113;28;20049;-60
2022/06/12 01:25:03;;;;;;;23.27;13.95;;;;;;;;;;6202617;28;20485;-59
2022/06/12 01:28:06;;;;;;;22.67;14.90;;;;;;;;;;6197456;28;20073;-59
2022/06/12 01:31:13;;;;;;;25.67;15.60;;;;;;;;;;6200163;28;20512;-59
2022/06/12 01:34:26;;;;;;;26.38;15.57;;;;;;;;;;6206679;28;20054;-59
2022/06/12 01:37:42;;;;;;;23.30;15.88;;;;;;;;;;6206684;28;20073;-59
2022/06/12 01:40:50;;;;;;;22.80;15.05;;;;;;;;;;6207741;28;20038;-59
2022/06/12 01:43:57;;;;;;;28.38;17.13;;;;;;;;;;6203419;28;20074;-59
2022/06/12 01:47:26;;;;;;;28.05;17.02;;;;;;;;;;6206930;28;20038;-59
2022/06/12 01:50:43;;;;;;;24.33;16.02;;;;;;;;;;6200326;28;20050;-59
2022/06/12 01:53:58;;;;;;;23.25;15.65;;;;;;;;;;6200020;28;20050;-59
2022/06/12 01:57:07;;;;;;;25.52;15.68;;;;;;;;;;6207826;28;20066;-59
2022/06/12 02:00:15;;;;;;;21.42;15.35;;;;;;;;;;6208903;28;20046;-60
2022/06/12 02:03:31;;;;;;;24.50;14.70;;;;;;;;;;6208966;28;20092;-59
2022/06/12 02:06:39;;;;;;;27.88;15.75;;;;;;;;;;6206165;28;20034;-59
2022/06/12 02:09:49;;;;;;;23.83;16.15;;;;;;;;;;6208909;28;20042;-59
2022/06/12 02:13:12;;;;;;;26.13;16.38;;;;;;;;;;6201096;28;20085;-60
2022/06/12 02:16:18;;;;;;;24.30;15.00;;;;;;;;;;6207962;28;20057;-59
2022/06/12 02:19:25;;;;;;;26.42;16.60;;;;;;;;;;6198232;28;20088;-60
2022/06/12 02:22:28;;;;;;;26.48;15.68;;;;;;;;;;6203126;28;20050;-59
2022/06/12 02:25:33;;;;;;;24.35;16.25;;;;;;;;;;6202564;28;20069;-60
2022/06/12 02:28:45;;;;;;;23.42;14.63;;;;;;;;;;6204962;28;20054;-59
2022/06/12 02:31:51;;;;;;;20.42;14.18;;;;;;;;;;6200786;28;20081;-59
2022/06/12 02:35:00;;;;;;;28.08;15.82;;;;;;;;;;6204193;28;20564;-59
2022/06/12 02:38:08;;;;;;;20.00;14.48;;;;;;;;;;6204746;28;20038;-59
2022/06/12 02:41:19;;;;;;;25.58;16.05;;;;;;;;;;6208100;28;20149;-58
2022/06/12 02:44:26;;;;;;;24.80;15.48;;;;;;;;;;6206037;28;20054;-60
2022/06/12 02:47:31;;;;;;;24.13;15.05;;;;;;;;;;6204533;28;20493;-60
2022/06/12 02:50:36;;;;;;;25.00;15.13;;;;;;;;;;6209107;28;20069;-59
2022/06/12 02:54:01;;;;;;;25.90;16.50;;;;;;;;;;6205567;28;20040;-60
2022/06/12 02:57:11;;;;;;;26.77;16.50;;;;;;;;;;6205250;28;20520;-59
2022/06/12 03:00:30;;;;;;;26.30;16.05;;;;;;;;;;6201950;28;20070;-58
2022/06/12 03:03:40;;;;;;;23.48;15.50;;;;;;;;;;6201776;28;20053;-58
2022/06/12 03:06:42;;;;;;;24.95;15.48;;;;;;;;;;6195202;28;20038;-59
2022/06/12 03:09:43;;;;;;;22.67;16.15;;;;;;;;;;6198227;28;20509;-59
2022/06/12 03:12:45;;;;;;;27.98;16.40;;;;;;;;;;6205737;28;20073;-59
2022/06/12 03:15:48;;;;;;;;;;;;;;;;;;6204758;28;20053;-59
2022/06/12 03:18:54;;;;;;;29.63;17.45;;;;;;;;;;6207646;28;19928;-59
2022/06/12 03:22:02;;;;;;;29.00;16.45;;;;;;;;;;6204577;28;20046;-59
2022/06/12 03:25:24;;;;;;;24.13;16.67;;;;;;;;;;6200341;28;20042;-59
2022/06/12 03:28:30;;;;;;;29.83;17.13;;;;;;;;;;6199287;28;20122;-59
2022/06/12 03:31:38;;;;;;;25.15;16.65;;;;;;;;;;6199032;28;20176;-60
2022/06/12 03:34:53;;;;;;;32.38;18.63;;;;;;;;;;6206952;28;20046;-59
2022/06/12 03:38:12;;;;;;;28.73;18.63;;;;;;;;;;6201401;28;20120;-59
2022/06/12 03:41:22;;;;;;;27.83;17.48;;;;;;;;;;6205160;28;20078;-59
2022/06/12 03:44:29;;;;;;;30.95;17.67;;;;;;;;;;6204189;28;20091;-59
2022/06/12 03:47:36;;;;;;;25.50;17.70;;;;;;;;;;6202930;28;20069;-59
2022/06/12 03:50:43;;;;;;;28.13;17.65;;;;;;;;;;6206595;28;20493;-59
2022/06/12 03:53:51;;;;;;;30.60;18.02;;;;;;;;;;6197781;28;20644;-59
2022/06/12 04:00:45;;;;;;;37.42;21.25;;;;;;;;;;6203871;28;20416;-59
2022/06/12 04:03:47;;;;;;;33.92;20.75;;;;;;;;;;6201968;28;20061;-60
2022/06/12 04:06:48;;;;;;;34.47;20.75;;;;;;;;;;6207168;28;20457;-59
2022/06/12 04:09:52;;;;;;;31.50;20.63;;;;;;;;;;6202571;28;20054;-60
2022/06/12 04:12:53;;;;;;;34.90;20.08;;;;;;;;;;6198802;28;20486;-60
2022/06/12 04:16:01;;;;;;;35.60;21.45;;;;;;;;;;6204497;28;20117;-59
2022/06/12 04:19:05;;;;;;;34.25;21.77;;;;;;;;;;6196768;28;20050;-59
2022/06/12 04:22:14;;;;;;;32.33;21.27;;;;;;;;;;6201139;28;20042;-59
2022/06/12 04:25:43;;;;;;;34.08;21.35;;;;;;;;;;6195345;28;20054;-60
2022/06/12 04:28:46;;;;;;;35.15;22.38;;;;;;;;;;6207079;28;20136;-59
2022/06/12 04:31:49;;;;;;;35.50;21.90;;;;;;;;;;6205238;28;20435;-58
2022/06/12 04:34:51;;;;;;;36.53;22.67;;;;;;;;;;6205602;28;20588;-60
2022/06/12 04:37:51;;;;;;;;;;;;;;;;;;6215947;28;20521;-60
2022/06/12 04:40:52;;;;;;;37.47;22.27;;;;;;;;;;6210223;28;19926;-59
2022/06/12 04:43:52;;;;;;;42.90;24.35;;;;;;;;;;6210857;28;20060;-59
2022/06/12 04:46:55;;;;;;;37.55;23.60;;;;;;;;;;6208742;28;20081;-59
2022/06/12 04:49:56;;;;;;;48.38;26.35;;;;;;;;;;6205855;28;20437;-60
2022/06/12 04:52:57;;;;;;;43.00;26.07;;;;;;;;;;6207233;28;20066;-60
2022/06/12 04:55:57;;;;;;;50.70;26.33;;;;;;;;;;6209860;28;20670;-60
2022/06/12 04:58:58;;;;;;;54.42;29.67;;;;;;;;;;6210158;28;20137;-59
2022/06/12 05:01:58;;;;;;;46.10;27.30;;;;;;;;;;6202887;28;20042;-59
2022/06/12 05:04:59;;;;;;;55.22;27.30;;;;;;;;;;6201791;28;20072;-60
2022/06/12 05:08:00;;;;;;;41.85;25.48;;;;;;;;;;6207545;28;20041;-60
2022/06/12 05:11:01;;;;;;;48.17;26.35;;;;;;;;;;6208929;28;20054;-59
2022/06/12 05:14:02;;;;;;;47.65;25.98;;;;;;;;;;6207934;28;20404;-60
2022/06/12 05:17:06;;;;;;;39.55;25.25;;;;;;;;;;6212030;28;20081;-60
2022/06/12 05:20:12;;;;;;;46.67;26.13;;;;;;;;;;6207238;28;20065;-60
2022/06/12 05:23:13;;;;;;;37.40;25.05;;;;;;;;;;6207953;28;20188;-60
2022/06/12 05:26:16;;;;;;;39.25;25.55;;;;;;;;;;6206895;28;20058;-60
2022/06/12 05:29:23;;;;;;;41.85;26.60;;;;;;;;;;6201112;28;20082;-60
2022/06/12 05:32:26;;;;;;;38.88;25.00;;;;;;;;;;6197813;28;20630;-59
2022/06/12 05:35:27;;;;;;;;;;;;;;;;;;6201144;28;20087;-59
2022/06/12 05:38:27;;;;;;;37.50;21.55;;;;;;;;;;6198685;28;19921;-59
2022/06/12 05:41:28;;;;;;;36.43;21.50;;;;;;;;;;6201816;28;20125;-60
2022/06/12 05:44:29;;;;;;;36.30;20.63;;;;;;;;;;6208113;28;20516;-60
2022/06/12 05:47:30;;;;;;;37.35;22.08;;;;;;;;;;6203905;28;20042;-59
2022/06/12 05:50:34;;;;;;;28.00;16.97;;;;;;;;;;6205417;28;20078;-60
2022/06/12 05:53:38;;;;;;;28.38;17.92;;;;;;;;;;6210863;28;20115;-60
2022/06/12 05:56:39;;;;;;;30.05;18.92;;;;;;;;;;6209834;28;20058;-59
2022/06/12 05:59:39;;;;;;;31.13;19.33;;;;;;;;;;6210071;28;20091;-60
2022/06/12 06:02:40;;;;;;;31.83;19.35;;;;;;;;;;6206119;28;20045;-59
2022/06/12 06:05:42;;;;;;;30.08;18.13;;;;;;;;;;6205657;28;20046;-60
2022/06/12 06:09:04;;;;;;;24.67;17.08;;;;;;;;;;6205226;28;20696;-60
2022/06/12 06:12:05;;;;;;;27.85;16.45;;;;;;;;;;6206482;28;20057;-60
2022/06/12 06:15:07;;;;;;;26.13;16.93;;;;;;;;;;6207279;28;20054;-59
2022/06/12 06:18:08;;;;;;;29.13;16.73;;;;;;;;;;6204887;28;20181;-59
2022/06/12 06:21:11;;;;;;;30.07;17.20;;;;;;;;;;6203342;28;20081;-59
2022/06/12 06:24:12;;;;;;;27.17;16.02;;;;;;;;;;6202045;28;20153;-59
2022/06/12 06:27:14;;;;;;;23.47;15.77;;;;;;;;;;6201010;28;20089;-60
2022/06/12 06:30:15;;;;;;;23.88;15.70;;;;;;;;;;6209746;28;20297;-60
2022/06/12 06:33:15;;;;;;;23.30;14.43;;;;;;;;;;6208010;28;20046;-60
2022/06/12 06:36:16;;;;;;;27.47;14.07;;;;;;;;;;6209061;28;20153;-60
2022/06/12 06:39:17;;;;;;;20.27;13.90;;;;;;;;;;6205240;28;20061;-60
2022/06/12 06:42:17;;;;;;;25.93;15.33;;;;;;;;;;6209150;28;20121;-60
2022/06/12 06:48:38;;;;;;;26.90;15.48;;;;;;;;;;6204188;28;20068;-59
2022/06/12 06:51:38;;;;;;;25.50;16.30;;;;;;;;;;6206539;28;20046;-60
2022/06/12 06:54:39;;;;;;;24.67;15.47;;;;;;;;;;6210165;28;20628;-59
2022/06/12 06:57:43;;;;;;;23.55;15.23;;;;;;;;;;6201419;28;20046;-60
2022/06/12 07:00:46;;;;;;;22.08;14.45;;;;;;;;;;6199203;28;20587;-60
2022/06/12 07:03:46;;;;;;;20.83;13.63;;;;;;;;;;6203799;28;20054;-59
2022/06/12 07:06:47;;;;;;;23.10;12.83;;;;;;;;;;6207951;28;20550;-60
2022/06/12 07:09:47;;;;;;;14.27;9.70;;;;;;;;;;6207957;28;20053;-60
2022/06/12 07:12:49;;;;;;;16.27;9.10;;;;;;;;;;6197783;28;20053;-59
2022/06/12 07:15:50;;;;;;;14.10;8.88;;;;;;;;;;6203704;28;20127;-60
2022/06/12 07:18:51;;;;;;;15.67;8.63;;;;;;;;;;6204317;28;20050;-60
2022/06/12 07:21:51;;;;;;;15.83;8.60;;;;;;;;;;6200602;28;20097;-60
2022/06/12 07:24:52;;;;;;;13.73;7.90;;;;;;;;;;6199323;28;21122;-59
2022/06/12 07:27:53;;;;;;;13.47;7.60;;;;;;;;;;6198845;28;20064;-60
2022/06/12 07:30:54;;;;;;;10.33;6.90;;;;;;;;;;6208251;28;20122;-59
2022/06/12 07:33:55;;;;;;;11.80;5.93;;;;;;;;;;6201203;28;20061;-60
2022/06/12 07:36:55;;;;;;;10.30;6.20;;;;;;;;;;6204982;28;20042;-60
2022/06/12 07:39:56;;;;;;;10.67;6.27;;;;;;;;;;6202750;28;20034;-60
2022/06/12 07:42:56;;;;;;;10.60;6.67;;;;;;;;;;6202902;28;20429;-59
2022/06/12 07:45:57;;;;;;;11.43;7.63;;;;;;;;;;6207058;28;20041;-60
2022/06/12 07:48:58;;;;;;;12.27;6.80;;;;;;;;;;6198185;28;20129;-59
2022/06/12 07:52:01;;;;;;;11.70;7.13;;;;;;;;;;6205901;28;20774;-58
2022/06/12 07:55:02;;;;;;;10.60;7.47;;;;;;;;;;6207665;28;20396;-60
2022/06/12 07:58:03;;;;;;;13.90;6.88;;;;;;;;;;6201281;28;20496;-60
2022/06/12 08:01:10;;;;;;;10.23;6.80;;;;;;;;;;6201259;28;20184;-59
2022/06/12 08:04:11;;;;;;;12.60;7.13;;;;;;;;;;6205794;28;20058;-59
2022/06/12 08:07:12;;;;;;;11.00;6.95;;;;;;;;;;6212675;28;20057;-59
2022/06/12 08:10:14;;;;;;;11.20;6.55;;;;;;;;;;6204975;28;20065;-59
2022/06/12 08:13:16;;;;;;;11.18;6.57;;;;;;;;;;6211949;28;20811;-60
2022/06/12 08:16:17;;;;;;;10.82;6.43;;;;;;;;;;6203662;28;20046;-60
2022/06/12 08:22:37;;;;;;;11.00;7.18;;;;;;;;;;6208521;28;20048;-59
2022/06/12 08:25:38;;;;;;;9.70;6.10;;;;;;;;;;6211336;28;20460;-59
2022/06/12 08:28:42;;;;;;;;;;;;;;;;;;6207648;28;20038;-60
2022/06/12 08:31:49;;;;;;;10.05;6.13;;;;;;;;;;6210534;28;19969;-60
2022/06/12 08:34:55;;;;;;;8.75;5.95;;;;;;;;;;6212321;28;20080;-60
2022/06/12 08:37:56;;;;;;;8.25;5.93;;;;;;;;;;6214760;28;20057;-59
2022/06/12 08:41:00;;;;;;;11.70;7.15;;;;;;;;;;6210366;28;20445;-59
2022/06/12 08:44:20;;;;;;;10.70;6.20;;;;;;;;;;6210065;28;20045;-59
2022/06/12 08:47:27;;;;;;;11.55;6.50;;;;;;;;;;6209681;28;20107;-59
2022/06/12 08:50:27;;;;;;;10.57;6.07;;;;;;;;;;6205845;28;20405;-60
2022/06/12 08:53:42;;;;;;;12.20;6.73;;;;;;;;;;6206236;28;20066;-60
2022/06/12 08:56:52;;;;;;;10.93;6.03;;;;;;;;;;6198524;28;20082;-60
2022/06/12 09:00:04;;;;;;;13.05;6.22;;;;;;;;;;6213566;28;20505;-59
2022/06/12 09:03:14;;;;;;;11.20;6.30;;;;;;;;;;6205816;28;20050;-60
2022/06/12 09:06:45;;;;;;;10.85;6.15;;;;;;;;;;6202801;28;20445;-59
2022/06/12 09:09:52;;;;;;;11.15;6.97;;;;;;;;;;6209087;28;20049;-59
2022/06/12 09:13:15;;;;;;;10.05;5.90;;;;;;;;;;6209913;28;20088;-60
2022/06/12 09:16:15;;;;;;;13.20;7.45;;;;;;;;;;6203247;28;20042;-60
2022/06/12 09:19:26;;;;;;;13.40;7.70;;;;;;;;;;6206075;28;20038;-60
2022/06/12 09:22:36;;;;;;;13.50;8.32;;;;;;;;;;6208377;28;20065;-60
2022/06/12 09:25:47;;;;;;;12.15;7.60;;;;;;;;;;6209129;28;20057;-60
2022/06/12 09:29:04;;;;;;;16.50;8.77;;;;;;;;;;6202267;28;20050;-60
2022/06/12 09:32:11;;;;;;;13.65;8.60;;;;;;;;;;6204970;28;20538;-60
2022/06/12 09:35:35;;;;;;;14.93;8.57;;;;;;;;;;6205356;28;20042;-58
2022/06/12 09:38:58;;;;;;;12.35;7.78;;;;;;;;;;6208327;28;20885;-61
2022/06/12 09:42:22;;;;;;;11.00;8.43;;;;;;;;;;6179393;28;20046;-60
2022/06/12 09:45:36;;;;;;;11.40;8.18;;;;;;;;;;6193967;28;20104;-60
2022/06/12 09:49:05;;;;;;;13.35;8.45;;;;;;;;;;6194797;28;20050;-59
2022/06/12 09:52:06;;;;;;;11.57;8.10;;;;;;;;;;6190071;28;20082;-60
2022/06/12 09:55:35;;;;;;;11.60;7.90;;;;;;;;;;6191795;28;20052;-60
2022/06/12 09:58:52;;;;;;;12.55;8.07;;;;;;;;;;6186592;28;20052;-60
2022/06/12 10:01:57;;;;;;;9.40;7.10;;;;;;;;;;6171234;28;20429;-60
2022/06/12 10:05:13;;;;;;;10.50;6.28;;;;;;;;;;6194476;28;21362;-60
2022/06/12 10:08:20;;;;;;;7.93;6.40;;;;;;;;;;6194912;28;20416;-60
2022/06/12 10:11:46;;;;;;;9.02;6.07;;;;;;;;;;6189406;28;20082;-60
2022/06/12 10:14:53;;;;;;;11.18;6.90;;;;;;;;;;6191332;28;20284;-61
2022/06/12 10:18:03;;;;;;;8.63;6.47;;;;;;;;;;6192442;28;20165;-60
2022/06/12 10:21:10;;;;;;;12.20;6.60;;;;;;;;;;6190242;28;20068;-60
2022/06/12 10:24:12;;;;;;;7.85;6.38;;;;;;;;;;6189830;28;20074;-60
2022/06/12 10:27:16;;;;;;;8.33;6.60;;;;;;;;;;6194180;28;20503;-60
2022/06/12 10:30:39;;;;;;;10.65;6.80;;;;;;;;;;6193187;28;20070;-60
2022/06/12 10:33:42;;;;;;;10.23;6.20;;;;;;;;;;6192559;28;20452;-60
2022/06/12 10:36:44;;;;;;;12.35;6.20;;;;;;;;;;6189801;28;20145;-60
2022/06/12 10:39:45;;;;;;;8.52;5.93;;;;;;;;;;6190132;28;20735;-60
2022/06/12 10:42:52;;;;;;;9.43;6.30;;;;;;;;;;6195258;28;20096;-60
2022/06/12 10:46:16;;;;;;;9.68;6.07;;;;;;;;;;6189096;28;20076;-60
2022/06/12 10:49:19;;;;;;;9.38;6.53;;;;;;;;;;6192311;28;20069;-60
2022/06/12 10:52:22;;;;;;;8.07;6.28;;;;;;;;;;6188585;28;20061;-60
2022/06/12 10:55:50;;;;;;;10.23;6.10;;;;;;;;;;6188210;28;20073;-59
2022/06/12 10:59:22;;;;;;;8.52;5.88;;;;;;;;;;6189058;28;20085;-59
2022/06/12 11:02:42;;;;;;;10.07;5.90;;;;;;;;;;6188041;28;20132;-60
2022/06/12 11:05:55;;;;;;;7.85;5.00;;;;;;;;;;6192082;28;20046;-59
2022/06/12 11:09:11;;;;;;;7.47;5.75;;;;;;;;;;6190007;28;20878;-59
2022/06/12 11:12:56;;;;;;;7.93;5.60;;;;;;;;;;6188808;28;20046;-60
2022/06/12 11:16:02;;;;;;;8.48;5.50;;;;;;;;;;6119856;28;20083;-59
2022/06/12 11:19:03;;;;;;;9.45;6.47;;;;;;;;;;6189917;28;20069;-59
2022/06/12 11:22:40;;;;;;;9.43;5.40;;;;;;;;;;6188802;28;20159;-60
2022/06/12 11:25:56;;;;;;;10.77;5.82;;;;;;;;;;6189188;28;20093;-60
2022/06/12 11:29:28;;;;;;;11.27;6.22;;;;;;;;;;6186385;28;20186;-60
2022/06/12 11:32:47;;;;;;;7.32;5.53;;;;;;;;;;6187924;28;20058;-60
2022/06/12 11:35:57;;;;;;;8.63;5.70;;;;;;;;;;6188207;28;20074;-60
2022/06/12 11:39:09;;;;;;;9.45;5.82;;;;;;;;;;6188382;28;20784;-60
2022/06/12 11:42:16;;;;;;;6.80;4.95;;;;;;;;;;6186565;28;20141;-57
2022/06/12 11:45:40;;;;;;;15.38;11.20;;;;;;;;;;6195858;28;20050;-60
2022/06/12 11:48:55;;;;;;;9.20;5.70;;;;;;;;;;6190631;28;20566;-60
2022/06/12 11:52:37;;;;;;;7.38;5.53;;;;;;;;;;6189639;28;20164;-60
2022/06/12 11:56:03;;;;;;;8.90;5.65;;;;;;;;;;6193049;28;20140;-59
2022/06/12 11:59:12;;;;;;;7.43;5.38;;;;;;;;;;6189555;28;20080;-59
2022/06/12 12:02:16;;;;;;;8.50;5.65;;;;;;;;;;6190136;28;20786;-60
2022/06/12 12:05:54;;;;;;;9.48;5.90;;;;;;;;;;6194997;28;20054;-60
2022/06/12 12:09:17;;;;;;;7.18;5.80;;;;;;;;;;6187998;28;20108;-60
2022/06/12 12:12:23;;;;;;;8.48;6.10;;;;;;;;;;6191136;28;20057;-60
2022/06/12 12:15:30;;;;;;;7.45;5.85;;;;;;;;;;6187678;28;21247;-60
2022/06/12 12:18:42;;;;;;;7.90;5.90;;;;;;;;;;6192588;28;20505;-60
2022/06/12 12:21:54;;;;;;;7.93;5.57;;;;;;;;;;6189150;28;20053;-60
2022/06/12 12:25:15;;;;;;;7.75;5.75;;;;;;;;;;6188216;28;20054;-60
2022/06/12 12:28:30;;;;;;;7.30;5.93;;;;;;;;;;6191211;28;20132;-61
2022/06/12 12:31:32;;;;;;;8.68;6.35;;;;;;;;;;6188891;28;20072;-59
2022/06/12 12:34:33;;;;;;;7.35;6.20;;;;;;;;;;6190662;28;20085;-61
2022/06/12 12:41:25;;;;;;;8.35;6.70;;;;;;;;;;6189966;28;20693;-59
2022/06/12 12:44:32;;;;;;;9.32;6.85;;;;;;;;;;6174018;28;20096;-57
2022/06/12 12:47:33;;;;;;;14.00;11.30;;;;;;;;;;6186966;28;20063;-59
2022/06/12 12:50:51;;;;;;;7.40;6.13;;;;;;;;;;6198913;28;20069;-59
2022/06/12 12:53:52;;;;;;;8.48;6.30;;;;;;;;;;6193022;28;20085;-58
2022/06/12 12:57:01;;;;;;;7.83;6.47;;;;;;;;;;6189500;28;20157;-57
2022/06/12 13:00:05;;;;;;;10.60;7.03;;;;;;;;;;6192346;28;20525;-59
2022/06/12 13:03:47;;;;;;;8.93;7.15;;;;;;;;;;6191585;28;20058;-57
2022/06/12 13:07:20;;;;;;;8.98;6.60;;;;;;;;;;6103034;29;20083;-58
2022/06/12 13:10:47;;;;;;;10.48;7.00;;;;;;;;;;6114665;28;20069;-57
2022/06/12 13:13:59;;;;;;;7.72;6.93;;;;;;;;;;6192047;28;20085;-57
2022/06/12 13:17:17;;;;;;;8.10;6.68;;;;;;;;;;6193949;28;20403;-58
2022/06/12 13:20:31;;;;;;;9.68;6.97;;;;;;;;;;6194775;28;20078;-57
2022/06/12 13:23:48;;;;;;;11.77;7.55;;;;;;;;;;6191013;28;20050;-57
2022/06/12 13:26:48;;;;;;;8.80;7.45;;;;;;;;;;6192892;28;20137;-58
2022/06/12 13:29:51;;;;;;;9.90;7.77;;;;;;;;;;6192301;28;20475;-58
2022/06/12 13:32:52;;;;;;;9.77;8.35;;;;;;;;;;6193623;28;20089;-60
2022/06/12 13:36:00;;;;;;;9.52;7.95;;;;;;;;;;6192368;28;20482;-60
2022/06/12 13:39:26;;;;;;;9.85;8.50;;;;;;;;;;6191008;28;20180;-60
2022/06/12 13:42:29;;;;;;;9.95;8.35;;;;;;;;;;6191846;28;20052;-60
2022/06/12 13:45:29;;;;;;;9.73;8.35;;;;;;;;;;6193600;28;20718;-58
2022/06/12 13:48:36;;;;;;;11.53;8.87;;;;;;;;;;6193805;28;20042;-59
2022/06/12 13:51:47;;;;;;;10.43;8.27;;;;;;;;;;6190674;28;20140;-59
2022/06/12 13:54:47;;;;;;;11.95;9.02;;;;;;;;;;6193711;28;20041;-58
2022/06/12 13:57:48;;;;;;;12.53;9.10;;;;;;;;;;6185599;28;20117;-60
2022/06/12 14:00:54;;;;;;;12.37;9.20;;;;;;;;;;6188329;28;20046;-58
2022/06/12 14:04:00;;;;;;;10.60;9.45;;;;;;;;;;6188160;28;20145;-58
2022/06/12 14:07:03;;;;;;;10.43;8.55;;;;;;;;;;6174591;28;20038;-58
2022/06/12 14:10:13;;;;;;;9.43;8.13;;;;;;;;;;6197007;28;20821;-61
2022/06/12 14:13:36;;;;;;;8.70;7.80;;;;;;;;;;6192274;28;20060;-59
2022/06/12 14:16:45;;;;;;;8.73;7.75;;;;;;;;;;6189075;28;20165;-60
2022/06/12 14:20:15;;;;;;;8.23;7.40;;;;;;;;;;6190527;28;20068;-57
2022/06/12 14:23:24;;;;;;;10.63;8.57;;;;;;;;;;6184413;28;20148;-60
2022/06/12 14:26:31;;;;;;;12.50;9.05;;;;;;;;;;6185689;28;20057;-60
2022/06/12 14:29:34;;;;;;;12.32;9.35;;;;;;;;;;6192344;28;20125;-60
2022/06/12 14:32:45;;;;;;;10.32;8.20;;;;;;;;;;6192161;28;20081;-60
2022/06/12 14:35:46;;;;;;;9.38;7.95;;;;;;;;;;6191523;28;20054;-59
2022/06/12 14:38:47;;;;;;;9.73;8.17;;;;;;;;;;6190060;28;20419;-60
2022/06/12 14:41:54;;;;;;;12.83;9.50;;;;;;;;;;6194310;28;20062;-60
2022/06/12 14:44:56;;;;;;;12.52;9.68;;;;;;;;;;6190953;28;20053;-60
2022/06/12 14:47:57;;;;;;;12.15;8.40;;;;;;;;;;6169015;28;20608;-60
2022/06/12 14:50:58;;;;;;;11.33;9.10;;;;;;;;;;6197626;28;20527;-60
2022/06/12 14:53:59;;;;;;;12.55;9.52;;;;;;;;;;6193148;28;20126;-60
2022/06/12 14:57:01;;;;;;;11.07;9.45;;;;;;;;;;6192317;28;20545;-60
2022/06/12 15:00:06;;;;;;;11.63;9.30;;;;;;;;;;6192980;28;20053;-59
2022/06/12 15:03:12;;;;;;;12.00;9.55;;;;;;;;;;6190446;28;20128;-60
2022/06/12 15:06:13;;;;;;;10.32;9.32;;;;;;;;;;6187056;28;20049;-59
2022/06/12 15:09:14;;;;;;;12.05;9.00;;;;;;;;;;6190723;28;20069;-60
2022/06/12 15:12:18;;;;;;;11.68;8.50;;;;;;;;;;6192116;28;20054;-60
2022/06/12 15:15:21;;;;;;;8.90;7.82;;;;;;;;;;6191108;28;20054;-60
2022/06/12 15:18:22;;;;;;;10.10;9.00;;;;;;;;;;6191344;28;20050;-60
2022/06/12 15:21:27;;;;;;;13.33;8.77;;;;;;;;;;6195355;28;20061;-60
2022/06/12 15:24:29;;;;;;;11.52;8.70;;;;;;;;;;6174564;28;20106;-60
2022/06/12 15:30:49;;;;;;;12.85;9.18;;;;;;;;;;6191557;28;20141;-60
2022/06/12 15:33:49;;;;;;;13.40;9.30;;;;;;;;;;6193586;28;20093;-60
2022/06/12 15:36:50;;;;;;;9.75;8.18;;;;;;;;;;6190990;28;20046;-60
2022/06/12 15:39:51;;;;;;;10.13;7.97;;;;;;;;;;6189489;28;20046;-59
2022/06/12 15:42:51;;;;;;;9.85;6.95;;;;;;;;;;6192132;28;20042;-60
2022/06/12 15:45:52;;;;;;;10.43;7.30;;;;;;;;;;6187904;28;20051;-60
2022/06/12 15:48:54;;;;;;;8.73;7.47;;;;;;;;;;6190733;28;20042;-60
2022/06/12 15:51:54;;;;;;;10.48;7.38;;;;;;;;;;6192366;28;20053;-60
2022/06/12 15:54:55;;;;;;;9.18;7.53;;;;;;;;;;6190881;28;20497;-60
2022/06/12 15:57:56;;;;;;;11.13;7.60;;;;;;;;;;6184949;28;20061;-61
2022/06/12 16:00:57;;;;;;;12.15;7.97;;;;;;;;;;6193744;28;20070;-60
2022/06/12 16:03:58;;;;;;;11.73;8.53;;;;;;;;;;6189596;28;20921;-60
2022/06/12 16:06:58;;;;;;;10.68;7.82;;;;;;;;;;6187712;28;20050;-59
2022/06/12 16:09:59;;;;;;;9.60;8.60;;;;;;;;;;6190776;28;20111;-61
2022/06/12 16:13:00;;;;;;;8.98;7.38;;;;;;;;;;6192231;28;20153;-59
2022/06/12 16:16:01;;;;;;;9.50;8.00;;;;;;;;;;6186908;28;20516;-60
2022/06/12 16:19:02;;;;;;;10.52;8.27;;;;;;;;;;6191071;28;20591;-60
2022/06/12 16:22:03;;;;;;;9.57;8.00;;;;;;;;;;6190674;28;20050;-59
2022/06/12 16:25:05;;;;;;;9.73;8.30;;;;;;;;;;6195854;28;20045;-60
2022/06/12 16:28:06;;;;;;;9.65;8.02;;;;;;;;;;6194113;28;20045;-60
2022/06/12 16:31:08;;;;;;;11.15;8.43;;;;;;;;;;6194677;28;20527;-60
2022/06/12 16:34:09;;;;;;;10.00;8.15;;;;;;;;;;6198174;28;20187;-60
2022/06/12 16:37:09;;;;;;;10.50;8.30;;;;;;;;;;6192873;28;20046;-60
2022/06/12 16:40:17;;;;;;;10.67;9.07;;;;;;;;;;6195598;28;20157;-60
2022/06/12 16:43:18;;;;;;;10.27;8.93;;;;;;;;;;6194484;28;20233;-59
2022/06/12 16:46:18;;;;;;;12.45;8.55;;;;;;;;;;6193272;28;20050;-60
2022/06/12 16:49:21;;;;;;;10.60;8.90;;;;;;;;;;6194857;28;20052;-59
2022/06/12 16:52:22;;;;;;;11.10;8.98;;;;;;;;;;6197220;28;20357;-60
2022/06/12 16:55:23;;;;;;;11.90;8.70;;;;;;;;;;6196326;28;20057;-60
2022/06/12 16:58:23;;;;;;;11.93;8.90;;;;;;;;;;6191575;28;20046;-60
2022/06/12 17:01:24;;;;;;;13.27;9.07;;;;;;;;;;6196162;28;20299;-61
2022/06/12 17:04:25;;;;;;;10.10;8.97;;;;;;;;;;6199421;28;20078;-60
2022/06/12 17:07:31;;;;;;;12.63;8.30;;;;;;;;;;6194875;28;20157;-60
2022/06/12 17:10:34;;;;;;;11.77;9.02;;;;;;;;;;6197398;28;20116;-60
2022/06/12 17:13:35;;;;;;;11.95;9.27;;;;;;;;;;6197420;28;20405;-60
2022/06/12 17:16:35;;;;;;;14.67;9.53;;;;;;;;;;6155631;28;1169889;-60
2022/06/12 17:22:55;;;;;;;15.60;9.90;;;;;;;;;;6193621;28;20039;-60
2022/06/12 17:25:55;;;;;;;14.30;10.27;;;;;;;;;;6194671;28;20584;-61
2022/06/12 17:28:57;;;;;;;18.70;13.63;;;;;;;;;;6198034;28;20394;-62
2022/06/12 17:31:58;;;;;;;16.67;13.23;;;;;;;;;;6194363;28;20172;-61
2022/06/12 17:34:59;;;;;;;19.10;14.57;;;;;;;;;;6192510;28;20109;-60
2022/06/12 17:37:59;;;;;;;16.40;10.23;;;;;;;;;;6190381;28;20274;-60
2022/06/12 17:41:00;;;;;;;13.90;10.73;;;;;;;;;;6189835;28;20768;-62
2022/06/12 17:44:00;;;;;;;16.03;12.03;;;;;;;;;;6191907;28;20053;-61
2022/06/12 17:47:01;;;;;;;16.23;10.33;;;;;;;;;;6189783;28;20299;-62
2022/06/12 17:50:02;;;;;;;15.48;10.20;;;;;;;;;;6193990;28;20069;-61
2022/06/12 17:53:05;;;;;;;13.55;10.20;;;;;;;;;;6190940;28;20057;-61
2022/06/12 17:56:06;;;;;;;13.60;10.20;;;;;;;;;;6196414;28;20512;-61
2022/06/12 17:59:07;;;;;;;15.17;10.33;;;;;;;;;;6188852;28;20081;-61
2022/06/12 18:02:07;;;;;;;13.73;9.80;;;;;;;;;;6194934;28;20041;-61
2022/06/12 18:05:08;;;;;;;13.27;9.33;;;;;;;;;;6197047;28;20084;-61
2022/06/12 18:08:09;;;;;;;12.27;10.20;;;;;;;;;;6192117;28;20061;-60
2022/06/12 18:11:12;;;;;;;14.03;10.60;;;;;;;;;;6194396;28;20050;-61
2022/06/12 18:14:13;;;;;;;14.55;10.00;;;;;;;;;;6193106;28;20150;-62
2022/06/12 18:20:33;;;;;;;13.52;10.05;;;;;;;;;;6194684;28;20049;-60
2022/06/12 18:23:33;;;;;;;13.60;10.20;;;;;;;;;;6194430;28;20042;-62
2022/06/12 18:26:35;;;;;;;12.13;9.37;;;;;;;;;;6199359;28;20586;-61
2022/06/12 18:29:36;;;;;;;18.15;10.70;;;;;;;;;;6196798;28;20109;-61
2022/06/12 18:32:36;;;;;;;13.50;10.00;;;;;;;;;;6191629;28;20860;-61
2022/06/12 18:35:42;;;;;;;13.07;10.60;;;;;;;;;;6189849;28;20044;-62
2022/06/12 18:38:43;;;;;;;14.40;10.70;;;;;;;;;;6192484;28;20049;-61
2022/06/12 18:41:43;;;;;;;14.83;12.03;;;;;;;;;;6194969;28;20133;-62
2022/06/12 18:44:44;;;;;;;15.47;12.43;;;;;;;;;;6194319;28;20417;-61
2022/06/12 18:47:45;;;;;;;15.13;12.73;;;;;;;;;;6195015;28;20479;-62